SBOSBO NCE / LFMN
Speedbird OnlineSpeedbird Online NCE / LFMN

Nice-Côte d'Azur Airport
22:07 17.3°C

Location Nice, France
Latitude: 43.6584014893
Longitude: 7.215869903560001
Web Wikipedia
Altitude 4 Meter / 12 Feet
Distance 1,020 KM / 634 Miles
from London.
Time Zone UTC +2 hours (Europe/Paris)
Codes IATA: NCE
ICAO: LFMN
Currency £1 equals EUR 1.12
Runways
RunwayLength (m)Surface
04L2628Asphalt
04R2963Asphalt
22L2963Asphalt
22R2628Asphalt
Radio
TypeDescriptionFrequency
A/DNICE APP124.175
ATISNICE ATIS129.6
GNDNICE GND121.775
TWRNICE TWR118.7
Live ATC
METAR LFMN 241930Z 33004KT 9999 SCT018 OVC036 18/16 Q1013 NOSIG
TAF TAF LFMN 241400Z 2415/2521 36005KT 9999 FEW008 BKN030 PROB40 TEMPO 2500/2509 4000 SHRA SCT020TCU BECMG 2510/2512 22010KT BECMG 2519/2521 35005KT
Weather As Of 24 Sep 2022 22:07
Description Overcast clouds
Wind 7 km/h from North-West (330°)
Cloud Cover 100%
Precipitation Rain: none, Snow: none
Sunrise 07:20
Sunset 19:26
Lounges The Canopy VIP Lounge, Terminal 1
Levity Lounge, Terminal 2
Infinity Lounge , Terminal 2
Rotations During the last 90 days there were
366 flights from LHR
134 flights from LGW
67 flights from LCY
364 flights to LHR
135 flights to LGW
126 flights to LCY
3 flights to STN


© 2017-2022 Speedbird Online